Time;durP1;ratioP1;P1;durP2;ratioP2;P2;SDS_P1;SDS_P2;PMS_P1;PMS_P2;Temp;Humidity;BMP_temperature;BMP_pressure;BME280_temperature;BME280_humidity;BME280_pressure;Samples;Min_cycle;Max_cycle;Signal;HPM_P1;HPM_P2
2022/10/30 00:00:28;;;;;;;12.87;9.73;;;;;;;;;;4469201;32;20367;-85
2022/10/30 00:02:55;;;;;;;24.07;10.83;;;;;;;;;;4469396;32;20226;-85
2022/10/30 00:05:25;;;;;;;18.77;10.80;;;;;;;;;;4468871;32;20284;-85
2022/10/30 00:07:51;;;;;;;14.80;10.13;;;;;;;;;;4468493;32;20234;-85
2022/10/30 00:10:18;;;;;;;15.77;9.90;;;;;;;;;;4468966;32;20256;-85
2022/10/30 00:12:45;;;;;;;13.27;9.67;;;;;;;;;;4468894;32;20284;-85
2022/10/30 00:15:14;;;;;;;16.23;11.00;;;;;;;;;;4468786;32;20212;-85
2022/10/30 00:17:43;;;;;;;18.20;11.10;;;;;;;;;;4467528;32;20235;-85
2022/10/30 00:20:13;;;;;;;15.07;9.57;;;;;;;;;;4468661;32;20215;-85
2022/10/30 00:22:40;;;;;;;16.13;8.83;;;;;;;;;;4468460;32;20220;-85
2022/10/30 00:25:09;;;;;;;12.13;10.10;;;;;;;;;;4469086;32;20217;-85
2022/10/30 00:27:36;;;;;;;15.07;9.53;;;;;;;;;;4468971;32;20306;-85
2022/10/30 00:30:15;;;;;;;17.80;10.07;;;;;;;;;;4468563;32;20207;-85
2022/10/30 00:32:43;;;;;;;17.43;10.07;;;;;;;;;;4468688;32;20235;-85
2022/10/30 00:35:10;;;;;;;11.63;8.10;;;;;;;;;;4468480;32;20208;-85
2022/10/30 00:37:38;;;;;;;16.83;9.80;;;;;;;;;;4468807;32;20234;-85
2022/10/30 00:40:07;;;;;;;23.30;11.70;;;;;;;;;;4467365;32;20595;-85
2022/10/30 00:42:34;;;;;;;23.30;13.97;;;;;;;;;;4468930;32;20204;-85
2022/10/30 00:45:00;;;;;;;17.90;11.07;;;;;;;;;;4468684;32;20230;-85
2022/10/30 00:47:34;;;;;;;21.60;12.17;;;;;;;;;;4467059;32;20288;-85
2022/10/30 00:50:09;;;;;;;21.50;12.30;;;;;;;;;;4468442;32;20518;-85
2022/10/30 00:52:43;;;;;;;16.30;11.17;;;;;;;;;;4467784;32;20274;-85
2022/10/30 00:55:15;;;;;;;21.70;12.43;;;;;;;;;;4468794;32;20286;-84
2022/10/30 00:57:42;;;;;;;20.70;12.17;;;;;;;;;;4468759;32;20211;-84
2022/10/30 01:00:15;;;;;;;28.10;13.50;;;;;;;;;;4468724;32;20249;-84
2022/10/30 01:02:43;;;;;;;25.50;13.53;;;;;;;;;;4468770;32;20266;-85
2022/10/30 01:05:13;;;;;;;25.87;14.77;;;;;;;;;;4468706;32;20271;-85
2022/10/30 01:07:42;;;;;;;27.67;14.10;;;;;;;;;;4468694;32;20267;-85
2022/10/30 01:10:10;;;;;;;23.60;13.27;;;;;;;;;;4468918;32;20208;-85
2022/10/30 01:12:38;;;;;;;22.13;12.97;;;;;;;;;;4468128;32;20289;-85
2022/10/30 01:15:06;;;;;;;26.17;14.13;;;;;;;;;;4468691;32;20213;-85
2022/10/30 01:17:57;;;;;;;24.47;14.33;;;;;;;;;;4466888;32;20233;-85
2022/10/30 01:20:48;;;;;;;24.17;14.73;;;;;;;;;;4469745;32;20215;-85
2022/10/30 01:23:28;;;;;;;21.60;13.90;;;;;;;;;;4471798;32;20628;-85
2022/10/30 01:26:10;;;;;;;25.90;13.17;;;;;;;;;;4471531;32;20692;-85
2022/10/30 01:29:01;;;;;;;30.53;15.97;;;;;;;;;;4471696;32;20216;-85
2022/10/30 01:31:41;;;;;;;23.83;14.67;;;;;;;;;;4471298;32;20228;-85
2022/10/30 01:34:20;;;;;;;25.90;14.10;;;;;;;;;;4471729;32;20266;-85
2022/10/30 01:36:57;;;;;;;31.70;15.40;;;;;;;;;;4471727;32;20722;-84
2022/10/30 01:39:26;;;;;;;34.37;18.70;;;;;;;;;;4471573;32;20230;-85
2022/10/30 01:41:56;;;;;;;37.27;20.77;;;;;;;;;;4471088;32;20284;-84
2022/10/30 01:44:27;;;;;;;31.70;18.10;;;;;;;;;;4470595;32;20599;-85
2022/10/30 01:47:08;;;;;;;40.40;19.00;;;;;;;;;;4471038;32;20239;-84
2022/10/30 01:49:51;;;;;;;40.70;18.90;;;;;;;;;;4471528;32;20222;-84
2022/10/30 01:52:25;;;;;;;35.77;21.27;;;;;;;;;;4470762;32;20225;-85
2022/10/30 01:54:59;;;;;;;40.27;23.30;;;;;;;;;;4471400;32;20259;-85
2022/10/30 01:57:36;;;;;;;33.90;21.60;;;;;;;;;;4470690;32;20614;-85
2022/10/30 02:00:05;;;;;;;41.73;22.07;;;;;;;;;;4471207;32;20240;-85
2022/10/30 02:02:32;;;;;;;30.73;19.30;;;;;;;;;;4470632;32;20242;-85
2022/10/30 02:05:03;;;;;;;32.23;18.33;;;;;;;;;;4471158;32;20613;-85
2022/10/30 02:07:31;;;;;;;32.33;17.90;;;;;;;;;;4470457;32;20624;-85
2022/10/30 02:09:58;;;;;;;24.67;16.70;;;;;;;;;;4470609;32;20644;-85
2022/10/30 02:12:26;;;;;;;21.47;13.87;;;;;;;;;;4470044;32;20296;-85
2022/10/30 02:14:59;;;;;;;29.17;17.57;;;;;;;;;;4470571;32;20212;-85
2022/10/30 02:17:27;;;;;;;28.17;17.70;;;;;;;;;;4470495;32;20224;-85
2022/10/30 02:19:54;;;;;;;39.80;22.43;;;;;;;;;;4470852;32;20207;-85
2022/10/30 02:22:23;;;;;;;40.70;21.93;;;;;;;;;;4470447;32;20245;-85
2022/10/30 02:24:50;;;;;;;38.47;22.83;;;;;;;;;;4470238;32;20518;-85
2022/10/30 02:27:17;;;;;;;34.87;20.13;;;;;;;;;;4470305;32;20295;-85
2022/10/30 02:29:48;;;;;;;33.80;18.90;;;;;;;;;;4470779;32;20625;-85
2022/10/30 02:32:14;;;;;;;34.33;18.80;;;;;;;;;;4469642;32;20239;-85
2022/10/30 02:34:43;;;;;;;34.87;20.40;;;;;;;;;;4470671;32;20624;-84
2022/10/30 02:37:10;;;;;;;35.23;19.33;;;;;;;;;;4470200;32;20230;-85
2022/10/30 02:39:38;;;;;;;31.73;18.53;;;;;;;;;;4469853;32;20755;-85
2022/10/30 02:42:05;;;;;;;29.33;17.70;;;;;;;;;;4470585;32;20232;-85
2022/10/30 02:44:32;;;;;;;20.67;14.20;;;;;;;;;;4470095;32;20223;-84
2022/10/30 02:46:59;;;;;;;31.30;17.07;;;;;;;;;;4469814;32;20550;-84
2022/10/30 02:49:29;;;;;;;26.13;16.30;;;;;;;;;;4470574;32;20230;-84
2022/10/30 02:51:58;;;;;;;28.73;18.33;;;;;;;;;;4470040;32;20232;-84
2022/10/30 02:54:28;;;;;;;24.67;17.00;;;;;;;;;;4470448;32;20278;-85
2022/10/30 02:56:56;;;;;;;22.73;15.67;;;;;;;;;;4469808;32;20236;-84
2022/10/30 02:59:23;;;;;;;29.47;17.30;;;;;;;;;;4469813;32;20238;-85
2022/10/30 03:01:50;;;;;;;26.20;17.23;;;;;;;;;;4469846;32;20261;-85
2022/10/30 03:04:18;;;;;;;30.43;17.67;;;;;;;;;;4470399;32;20342;-87
2022/10/30 03:06:45;;;;;;;34.90;18.90;;;;;;;;;;4468606;32;20248;-85
2022/10/30 03:09:12;;;;;;;29.57;19.00;;;;;;;;;;4469751;32;20280;-85
2022/10/30 03:11:39;;;;;;;32.47;20.30;;;;;;;;;;4470211;32;20232;-85
2022/10/30 03:14:07;;;;;;;31.50;20.33;;;;;;;;;;4469665;32;20251;-85
2022/10/30 03:16:36;;;;;;;29.83;19.07;;;;;;;;;;4469635;32;20208;-85
2022/10/30 03:19:04;;;;;;;28.73;17.10;;;;;;;;;;4469478;32;20608;-85
2022/10/30 03:21:31;;;;;;;20.77;13.30;;;;;;;;;;4469960;32;20258;-85
2022/10/30 03:23:58;;;;;;;20.67;12.87;;;;;;;;;;4470051;32;20310;-85
2022/10/30 03:26:25;;;;;;;27.33;17.17;;;;;;;;;;4469942;32;20287;-85
2022/10/30 03:28:51;;;;;;;28.27;17.00;;;;;;;;;;4469500;32;20257;-85
2022/10/30 03:31:20;;;;;;;29.70;16.50;;;;;;;;;;4469887;32;20262;-85
2022/10/30 03:33:47;;;;;;;25.57;15.07;;;;;;;;;;4469406;32;20236;-85
2022/10/30 03:36:18;;;;;;;22.53;13.50;;;;;;;;;;4469857;32;20256;-84
2022/10/30 03:38:44;;;;;;;21.43;14.30;;;;;;;;;;4469482;32;20293;-84
2022/10/30 03:41:11;;;;;;;20.00;13.90;;;;;;;;;;4468655;32;20250;-84
2022/10/30 03:43:39;;;;;;;21.47;14.57;;;;;;;;;;4469336;32;20227;-84
2022/10/30 03:46:09;;;;;;;20.10;14.00;;;;;;;;;;4469056;32;20656;-84
2022/10/30 03:48:39;;;;;;;25.77;15.67;;;;;;;;;;4469569;32;20224;-85
2022/10/30 03:51:06;;;;;;;20.87;14.33;;;;;;;;;;4469629;32;20220;-85
2022/10/30 03:53:35;;;;;;;23.63;15.93;;;;;;;;;;4468018;32;20220;-85
2022/10/30 03:56:06;;;;;;;23.10;14.20;;;;;;;;;;4468999;32;20289;-85
2022/10/30 03:58:33;;;;;;;19.83;13.60;;;;;;;;;;4468903;32;20208;-85
2022/10/30 04:01:05;;;;;;;24.63;15.23;;;;;;;;;;4468918;32;20288;-84
2022/10/30 04:03:32;;;;;;;24.03;15.53;;;;;;;;;;4467680;32;20735;-85
2022/10/30 04:06:00;;;;;;;28.00;18.63;;;;;;;;;;4469139;32;20238;-85
2022/10/30 04:08:31;;;;;;;26.20;16.43;;;;;;;;;;4468866;32;20208;-85
2022/10/30 04:11:00;;;;;;;27.03;16.73;;;;;;;;;;4469140;32;20287;-85
2022/10/30 04:13:27;;;;;;;19.27;15.00;;;;;;;;;;4473493;32;20212;-84
2022/10/30 04:15:54;;;;;;;30.33;15.80;;;;;;;;;;4482554;32;20238;-84
2022/10/30 04:18:21;;;;;;;36.40;16.70;;;;;;;;;;4484020;32;20239;-85
2022/10/30 04:20:47;;;;;;;24.50;16.33;;;;;;;;;;4472298;32;20352;-85
2022/10/30 04:23:17;;;;;;;26.27;15.63;;;;;;;;;;4471669;32;20215;-85
2022/10/30 04:25:45;;;;;;;22.37;14.30;;;;;;;;;;4468976;32;20239;-84
2022/10/30 04:28:12;;;;;;;22.93;15.27;;;;;;;;;;4468689;32;20216;-84
2022/10/30 04:30:39;;;;;;;22.17;15.97;;;;;;;;;;4468881;32;20276;-84
2022/10/30 04:33:07;;;;;;;30.77;15.53;;;;;;;;;;4467435;32;20294;-85
2022/10/30 04:35:37;;;;;;;30.40;17.03;;;;;;;;;;4468428;32;20228;-84
2022/10/30 04:38:07;;;;;;;26.93;16.57;;;;;;;;;;4469021;32;20256;-84
2022/10/30 04:40:37;;;;;;;25.43;15.23;;;;;;;;;;4468356;32;20699;-84
2022/10/30 04:43:04;;;;;;;21.80;13.43;;;;;;;;;;4469031;32;20230;-84
2022/10/30 04:45:32;;;;;;;21.80;14.77;;;;;;;;;;4468728;32;20791;-84
2022/10/30 04:48:02;;;;;;;25.70;15.33;;;;;;;;;;4468324;32;20375;-84
2022/10/30 04:50:29;;;;;;;22.43;15.40;;;;;;;;;;4468720;32;20295;-84
2022/10/30 04:53:00;;;;;;;27.70;15.03;;;;;;;;;;4468329;32;20248;-83
2022/10/30 04:55:28;;;;;;;24.37;15.17;;;;;;;;;;4468360;32;20204;-84
2022/10/30 04:58:09;;;;;;;27.27;16.30;;;;;;;;;;4468330;32;20506;-84
2022/10/30 05:00:37;;;;;;;28.83;18.40;;;;;;;;;;4468604;32;20231;-84
2022/10/30 05:03:04;;;;;;;24.30;17.20;;;;;;;;;;4468203;32;20208;-85
2022/10/30 05:05:32;;;;;;;28.77;19.43;;;;;;;;;;4468206;32;20350;-84
2022/10/30 05:07:59;;;;;;;26.27;19.03;;;;;;;;;;4468638;32;20207;-84
2022/10/30 05:10:26;;;;;;;29.37;18.77;;;;;;;;;;4468502;32;20276;-84
2022/10/30 05:12:53;;;;;;;33.63;21.13;;;;;;;;;;4468214;32;20612;-84
2022/10/30 05:15:22;;;;;;;26.57;20.90;;;;;;;;;;4466876;32;20310;-84
2022/10/30 05:17:51;;;;;;;36.07;22.83;;;;;;;;;;4468125;32;20267;-84
2022/10/30 05:20:19;;;;;;;36.33;23.10;;;;;;;;;;4466913;32;20276;-84
2022/10/30 05:22:46;;;;;;;36.10;22.70;;;;;;;;;;4468596;32;20230;-84
2022/10/30 05:25:12;;;;;;;34.67;22.67;;;;;;;;;;4468035;32;20511;-84
2022/10/30 05:27:40;;;;;;;36.07;23.77;;;;;;;;;;4467767;32;20751;-84
2022/10/30 05:30:10;;;;;;;34.03;22.90;;;;;;;;;;4468526;32;20230;-84
2022/10/30 05:32:43;;;;;;;47.00;21.10;;;;;;;;;;4468072;32;20248;-84
2022/10/30 05:35:09;;;;;;;28.73;20.57;;;;;;;;;;4468586;32;20280;-84
2022/10/30 05:37:36;;;;;;;28.93;18.57;;;;;;;;;;4467476;32;20748;-84
2022/10/30 05:40:07;;;;;;;30.53;19.20;;;;;;;;;;4467799;32;20526;-84
2022/10/30 05:42:34;;;;;;;31.30;20.20;;;;;;;;;;4466880;32;20239;-84
2022/10/30 05:45:04;;;;;;;31.50;23.13;;;;;;;;;;4466907;32;20212;-84
2022/10/30 05:47:31;;;;;;;39.83;26.30;;;;;;;;;;4467742;32;20232;-84
2022/10/30 05:49:59;;;;;;;35.37;20.53;;;;;;;;;;4466722;32;20281;-84
2022/10/30 05:52:28;;;;;;;31.67;18.77;;;;;;;;;;4467773;32;20232;-84
2022/10/30 05:54:54;;;;;;;27.10;17.60;;;;;;;;;;4468322;32;20521;-86
2022/10/30 05:57:22;;;;;;;24.37;16.60;;;;;;;;;;4468219;32;20268;-85
2022/10/30 05:59:49;;;;;;;28.23;17.87;;;;;;;;;;4466655;32;20290;-85
2022/10/30 06:02:17;;;;;;;29.70;18.33;;;;;;;;;;4468066;32;20579;-86
2022/10/30 06:04:44;;;;;;;37.40;20.23;;;;;;;;;;4472607;32;20244;-86
2022/10/30 06:07:12;;;;;;;31.27;20.87;;;;;;;;;;4469217;32;20640;-85
2022/10/30 06:09:39;;;;;;;32.67;20.03;;;;;;;;;;4477003;32;20248;-84
2022/10/30 06:12:06;;;;;;;31.37;18.63;;;;;;;;;;4487163;32;20200;-85
2022/10/30 06:14:33;;;;;;;29.30;19.20;;;;;;;;;;4487745;32;20193;-84
2022/10/30 06:16:59;;;;;;;31.40;19.63;;;;;;;;;;4487830;32;20370;-85
2022/10/30 06:19:26;;;;;;;30.70;19.27;;;;;;;;;;4487790;32;20544;-85
2022/10/30 06:21:53;;;;;;;33.03;19.13;;;;;;;;;;4476526;32;20275;-86
2022/10/30 06:24:21;;;;;;;30.17;18.47;;;;;;;;;;4473519;32;20307;-86
2022/10/30 06:26:58;;;;;;;46.60;19.17;;;;;;;;;;4473097;32;20267;-87
2022/10/30 06:29:24;;;;;;;36.53;18.20;;;;;;;;;;4475376;32;20231;-83
2022/10/30 06:31:51;;;;;;;29.97;18.53;;;;;;;;;;4473182;32;20216;-86
2022/10/30 06:34:18;;;;;;;30.20;16.00;;;;;;;;;;4471982;32;20228;-84
2022/10/30 06:36:45;;;;;;;28.17;16.27;;;;;;;;;;4469921;32;20244;-85
2022/10/30 06:39:11;;;;;;;26.67;17.00;;;;;;;;;;4470231;32;20288;-85
2022/10/30 06:41:40;;;;;;;22.07;12.93;;;;;;;;;;4470616;32;20688;-85
2022/10/30 06:44:07;;;;;;;26.80;15.83;;;;;;;;;;4470105;32;20339;-85
2022/10/30 06:46:33;;;;;;;27.77;18.13;;;;;;;;;;4469867;32;20239;-86
2022/10/30 06:49:00;;;;;;;35.87;22.33;;;;;;;;;;4469975;32;20739;-86
2022/10/30 06:51:27;;;;;;;40.27;27.93;;;;;;;;;;4469974;32;20220;-86
2022/10/30 06:53:54;;;;;;;48.67;28.60;;;;;;;;;;4469808;32;20252;-86
2022/10/30 06:56:21;;;;;;;40.60;26.80;;;;;;;;;;4470436;32;20220;-86
2022/10/30 06:58:49;;;;;;;38.30;24.67;;;;;;;;;;4469971;32;20228;-86
2022/10/30 07:01:16;;;;;;;34.53;24.30;;;;;;;;;;4470234;32;20724;-86
2022/10/30 07:03:43;;;;;;;35.77;24.70;;;;;;;;;;4469623;32;20248;-86
2022/10/30 07:06:09;;;;;;;41.77;25.73;;;;;;;;;;4470395;32;20312;-86
2022/10/30 07:08:36;;;;;;;52.20;25.83;;;;;;;;;;4469680;32;20300;-86
2022/10/30 07:11:03;;;;;;;33.57;25.23;;;;;;;;;;4470166;32;20216;-86
2022/10/30 07:13:30;;;;;;;35.90;24.10;;;;;;;;;;4469619;32;20338;-86
2022/10/30 07:16:00;;;;;;;35.27;22.40;;;;;;;;;;4469458;32;20261;-86
2022/10/30 07:18:29;;;;;;;34.53;23.97;;;;;;;;;;4469538;32;20221;-86
2022/10/30 07:20:57;;;;;;;33.67;21.33;;;;;;;;;;4469625;32;20220;-86
2022/10/30 07:23:24;;;;;;;29.30;18.97;;;;;;;;;;4469275;32;20732;-86
2022/10/30 07:25:51;;;;;;;31.47;18.00;;;;;;;;;;4469000;32;20228;-86
2022/10/30 07:28:18;;;;;;;28.83;17.63;;;;;;;;;;4469599;32;20234;-87
2022/10/30 07:30:47;;;;;;;35.07;18.77;;;;;;;;;;4469386;32;20220;-84
2022/10/30 07:33:15;;;;;;;28.00;19.33;;;;;;;;;;4469376;32;20245;-84
2022/10/30 07:35:43;;;;;;;36.83;21.03;;;;;;;;;;4469877;32;20228;-84
2022/10/30 07:38:19;;;;;;;31.60;18.07;;;;;;;;;;4469484;32;20284;-85
2022/10/30 07:40:52;;;;;;;31.87;19.23;;;;;;;;;;4470173;32;20314;-85
2022/10/30 07:43:19;;;;;;;26.17;17.73;;;;;;;;;;4469743;32;20262;-85
2022/10/30 07:45:46;;;;;;;23.60;16.10;;;;;;;;;;4467855;32;20248;-85
2022/10/30 07:48:15;;;;;;;24.80;17.07;;;;;;;;;;4469696;32;20668;-85
2022/10/30 07:50:42;;;;;;;34.50;17.37;;;;;;;;;;4470006;32;20219;-85
2022/10/30 07:53:09;;;;;;;23.97;16.03;;;;;;;;;;4469749;32;20272;-85
2022/10/30 07:55:39;;;;;;;25.57;14.13;;;;;;;;;;4469203;32;20733;-85
2022/10/30 07:58:08;;;;;;;21.83;12.20;;;;;;;;;;4469364;32;20240;-85
2022/10/30 08:00:36;;;;;;;13.97;11.40;;;;;;;;;;4468988;32;20236;-85
2022/10/30 08:03:04;;;;;;;20.50;13.10;;;;;;;;;;4469439;32;20215;-85
2022/10/30 08:05:32;;;;;;;21.50;12.87;;;;;;;;;;4469056;32;20302;-85
2022/10/30 08:08:01;;;;;;;19.90;11.40;;;;;;;;;;4469718;32;20230;-86
2022/10/30 08:10:28;;;;;;;17.07;12.47;;;;;;;;;;4468959;32;20572;-85
2022/10/30 08:12:58;;;;;;;19.03;13.10;;;;;;;;;;4468710;32;20257;-86
2022/10/30 08:15:25;;;;;;;20.83;12.53;;;;;;;;;;4467462;32;20248;-87
2022/10/30 08:17:52;;;;;;;17.03;11.63;;;;;;;;;;4468436;32;20270;-87
2022/10/30 08:20:24;;;;;;;17.13;9.17;;;;;;;;;;4468668;32;20239;-88
2022/10/30 08:22:53;;;;;;;25.80;10.60;;;;;;;;;;4469178;32;20278;-87
2022/10/30 08:25:23;;;;;;;18.70;9.60;;;;;;;;;;4468855;32;20250;-88
2022/10/30 08:27:55;;;;;;;18.63;10.63;;;;;;;;;;4469832;32;20287;-90
2022/10/30 08:30:23;;;;;;;23.17;10.93;;;;;;;;;;4468733;32;20279;-88
2022/10/30 08:32:51;;;;;;;22.10;11.17;;;;;;;;;;4468790;32;20232;-88
2022/10/30 08:35:18;;;;;;;29.33;9.73;;;;;;;;;;4469022;32;20216;-87
2022/10/30 08:37:45;;;;;;;18.30;9.80;;;;;;;;;;4468673;32;20228;-88
2022/10/30 08:40:13;;;;;;;15.70;8.20;;;;;;;;;;4468634;32;20220;-88
2022/10/30 08:42:40;;;;;;;14.80;9.13;;;;;;;;;;4467541;32;20624;-87
2022/10/30 08:45:08;;;;;;;17.27;9.93;;;;;;;;;;4468580;32;20208;-88
2022/10/30 08:47:34;;;;;;;18.33;9.50;;;;;;;;;;4468669;32;20228;-88
2022/10/30 08:50:11;;;;;;;20.48;10.85;;;;;;;;;;4468286;32;20366;-88
2022/10/30 08:52:38;;;;;;;20.67;9.23;;;;;;;;;;4468813;32;20212;-88
2022/10/30 08:55:06;;;;;;;18.43;8.47;;;;;;;;;;4468332;32;20240;-88
2022/10/30 08:57:39;;;;;;;14.37;8.10;;;;;;;;;;4468070;32;20223;-88
2022/10/30 09:00:07;;;;;;;19.30;7.43;;;;;;;;;;4468314;32;20220;-87
2022/10/30 09:02:35;;;;;;;15.13;8.73;;;;;;;;;;4468228;32;20216;-87
2022/10/30 09:05:02;;;;;;;13.60;7.97;;;;;;;;;;4468509;32;20220;-88
2022/10/30 09:07:31;;;;;;;20.50;8.30;;;;;;;;;;4468098;32;20228;-88
2022/10/30 09:10:00;;;;;;;16.62;8.38;;;;;;;;;;4468089;32;20246;-88
2022/10/30 09:12:29;;;;;;;14.35;7.97;;;;;;;;;;4468073;32;20284;-88
2022/10/30 09:14:57;;;;;;;22.80;8.48;;;;;;;;;;4468600;32;20245;-88
2022/10/30 09:17:24;;;;;;;12.88;8.55;;;;;;;;;;4468503;32;20239;-88
2022/10/30 09:19:50;;;;;;;20.42;8.57;;;;;;;;;;4481381;32;20280;-87
2022/10/30 09:22:17;;;;;;;13.80;8.70;;;;;;;;;;4482457;32;20236;-87
2022/10/30 09:24:44;;;;;;;15.00;7.75;;;;;;;;;;4481687;32;20315;-88
2022/10/30 09:27:11;;;;;;;12.10;6.47;;;;;;;;;;4476503;32;20334;-87
2022/10/30 09:29:38;;;;;;;17.17;7.37;;;;;;;;;;4471297;32;20250;-87
2022/10/30 09:32:08;;;;;;;16.17;8.27;;;;;;;;;;4468447;32;20262;-87
2022/10/30 09:34:36;;;;;;;13.98;9.05;;;;;;;;;;4468528;32;20268;-87
2022/10/30 09:37:03;;;;;;;21.02;9.35;;;;;;;;;;4468053;32;20273;-88
2022/10/30 09:39:32;;;;;;;15.82;8.95;;;;;;;;;;4468388;32;20208;-88
2022/10/30 09:42:35;;;;;;;17.02;8.57;;;;;;;;;;4470240;32;20232;-88
2022/10/30 09:45:17;;;;;;;16.55;9.95;;;;;;;;;;4470696;32;20340;-87
2022/10/30 09:47:56;;;;;;;35.90;16.30;;;;;;;;;;4470813;32;20605;-87
2022/10/30 09:50:31;;;;;;;20.00;12.98;;;;;;;;;;4471277;32;20240;-87
2022/10/30 09:53:05;;;;;;;18.98;11.25;;;;;;;;;;4471364;32;20237;-87
2022/10/30 09:55:43;;;;;;;22.45;11.70;;;;;;;;;;4470759;32;20269;-87
2022/10/30 09:58:21;;;;;;;19.65;11.20;;;;;;;;;;4471228;32;20656;-88
2022/10/30 10:01:01;;;;;;;24.42;11.65;;;;;;;;;;4470983;32;20228;-88
2022/10/30 10:03:51;;;;;;;21.20;11.43;;;;;;;;;;4471402;32;20511;-88
2022/10/30 10:06:23;;;;;;;21.75;9.93;;;;;;;;;;4470924;32;20208;-87
2022/10/30 10:11:38;;;;;;;16.05;10.02;;;;;;;;;;4470602;32;20319;-88
2022/10/30 10:14:09;;;;;;;18.02;10.68;;;;;;;;;;4470485;32;20572;-88
2022/10/30 10:16:39;;;;;;;19.42;11.20;;;;;;;;;;4471001;32;20208;-89
2022/10/30 10:19:16;;;;;;;18.05;10.65;;;;;;;;;;4469964;32;20296;-88
2022/10/30 10:21:46;;;;;;;16.05;10.50;;;;;;;;;;4471565;32;20231;-89
2022/10/30 10:24:18;;;;;;;24.08;12.93;;;;;;;;;;4471055;32;20228;-89
2022/10/30 10:26:52;;;;;;;24.00;11.90;;;;;;;;;;4470915;32;20204;-88
2022/10/30 10:29:35;;;;;;;22.65;10.57;;;;;;;;;;4470642;32;20217;-89
2022/10/30 10:32:27;;;;;;;17.70;11.38;;;;;;;;;;4470232;32;20741;-92
2022/10/30 10:35:38;;;;;;;20.85;10.07;;;;;;;;;;4471067;32;20254;-90
2022/10/30 10:38:14;;;;;;;18.50;10.10;;;;;;;;;;4463074;32;20315;-90
2022/10/30 10:40:52;;;;;;;25.40;11.70;;;;;;;;;;4470777;32;20219;-88
2022/10/30 10:43:30;;;;;;;18.62;9.60;;;;;;;;;;4470493;32;20673;-88
2022/10/30 10:46:09;;;;;;;20.62;10.88;;;;;;;;;;4470682;32;20359;-88
2022/10/30 10:48:51;;;;;;;15.48;10.32;;;;;;;;;;4469229;32;20240;-91
2022/10/30 10:51:24;;;;;;;19.05;8.93;;;;;;;;;;4470364;32;20653;-88
2022/10/30 10:53:57;;;;;;;18.55;8.45;;;;;;;;;;4469727;32;20224;-89
2022/10/30 10:56:31;;;;;;;14.68;9.02;;;;;;;;;;4470820;32;20233;-89
2022/10/30 10:59:03;;;;;;;16.75;9.98;;;;;;;;;;4470581;32;20247;-90
2022/10/30 11:01:38;;;;;;;19.87;9.45;;;;;;;;;;4471944;32;20227;-92
2022/10/30 11:04:12;;;;;;;19.70;10.63;;;;;;;;;;4470703;32;20277;-92
2022/10/30 11:06:44;;;;;;;16.08;9.75;;;;;;;;;;4469752;32;20220;-93
2022/10/30 11:09:18;;;;;;;23.17;9.38;;;;;;;;;;4470131;32;20208;-92
2022/10/30 11:11:45;;;;;;;20.27;9.05;;;;;;;;;;4468860;32;20227;-91
2022/10/30 11:14:16;;;;;;;13.52;6.03;;;;;;;;;;4469622;32;20231;-91
2022/10/30 11:16:55;;;;;;;9.20;3.50;;;;;;;;;;4470060;32;20204;-92
2022/10/30 11:19:23;;;;;;;9.15;4.25;;;;;;;;;;4468231;32;20310;-91
2022/10/30 11:21:54;;;;;;;6.00;3.65;;;;;;;;;;4470049;32;20236;-92
2022/10/30 11:24:32;;;;;;;8.98;3.12;;;;;;;;;;4469076;32;20707;-92
2022/10/30 11:27:17;;;;;;;4.75;2.83;;;;;;;;;;4470078;32;20212;-92
2022/10/30 11:29:53;;;;;;;9.15;3.08;;;;;;;;;;4468969;32;20546;-92
2022/10/30 11:32:21;;;;;;;7.22;4.32;;;;;;;;;;4469747;32;20269;-91
2022/10/30 11:35:02;;;;;;;5.55;2.80;;;;;;;;;;4469910;32;20204;-95
2022/10/30 11:37:33;;;;;;;8.85;2.45;;;;;;;;;;4470140;32;20216;-92
2022/10/30 11:40:07;;;;;;;6.95;2.45;;;;;;;;;;4469627;32;20300;-92
2022/10/30 11:42:38;;;;;;;10.93;2.42;;;;;;;;;;4468525;32;20235;-93
2022/10/30 11:45:13;;;;;;;10.23;2.62;;;;;;;;;;4468521;32;20267;-92
2022/10/30 11:47:42;;;;;;;3.15;2.05;;;;;;;;;;4468978;32;20219;-92
2022/10/30 11:50:18;;;;;;;3.95;1.90;;;;;;;;;;4468298;32;20581;-91
2022/10/30 11:52:49;;;;;;;5.18;1.98;;;;;;;;;;4468820;32;20270;-93
2022/10/30 11:55:20;;;;;;;6.75;2.40;;;;;;;;;;4468810;32;20239;-93
2022/10/30 11:57:50;;;;;;;6.97;2.05;;;;;;;;;;4469413;32;20245;-95
2022/10/30 12:00:28;;;;;;;8.00;3.45;;;;;;;;;;4469139;32;20265;-91
2022/10/30 12:02:56;;;;;;;11.85;2.12;;;;;;;;;;4469414;32;20239;-90
2022/10/30 12:05:38;;;;;;;4.70;2.20;;;;;;;;;;4466850;32;20244;-91
2022/10/30 12:08:21;;;;;;;5.53;2.00;;;;;;;;;;4469641;32;20574;-89
2022/10/30 12:10:58;;;;;;;9.15;2.45;;;;;;;;;;4468980;32;20255;-88
2022/10/30 12:13:26;;;;;;;10.85;2.03;;;;;;;;;;4469330;32;20244;-88
2022/10/30 12:16:06;;;;;;;5.75;2.08;;;;;;;;;;4468606;32;20227;-88
2022/10/30 12:18:39;;;;;;;6.28;3.03;;;;;;;;;;4469245;32;20238;-88
2022/10/30 12:21:07;;;;;;;5.85;3.10;;;;;;;;;;4468659;32;20224;-89
2022/10/30 12:23:36;;;;;;;12.02;2.85;;;;;;;;;;4469223;32;20235;-89
2022/10/30 12:26:10;;;;;;;4.65;1.95;;;;;;;;;;4468401;32;20228;-89
2022/10/30 12:28:39;;;;;;;6.80;2.17;;;;;;;;;;4469087;32;20268;-90
2022/10/30 12:31:13;;;;;;;16.05;1.95;;;;;;;;;;4468710;32;20573;-88
2022/10/30 12:33:49;;;;;;;15.68;2.50;;;;;;;;;;4468940;32;20246;-89
2022/10/30 12:36:20;;;;;;;3.87;1.73;;;;;;;;;;4469047;32;20208;-89
2022/10/30 12:38:58;;;;;;;9.02;2.53;;;;;;;;;;4469094;32;20250;-88
2022/10/30 12:41:31;;;;;;;4.25;1.85;;;;;;;;;;4468918;32;20231;-89
2022/10/30 12:44:14;;;;;;;7.55;1.62;;;;;;;;;;4469131;32;20621;-89
2022/10/30 12:46:48;;;;;;;8.05;2.40;;;;;;;;;;4467137;32;20239;-89
2022/10/30 12:49:22;;;;;;;5.90;2.35;;;;;;;;;;4469204;32;20240;-90
2022/10/30 12:51:55;;;;;;;3.85;2.00;;;;;;;;;;4468667;32;20228;-90
2022/10/30 12:54:35;;;;;;;7.43;2.17;;;;;;;;;;4468751;32;20275;-89
2022/10/30 12:57:09;;;;;;;8.85;1.70;;;;;;;;;;4468548;32;20750;-89
2022/10/30 12:59:48;;;;;;;6.00;1.67;;;;;;;;;;4468720;32;20200;-89
2022/10/30 13:02:25;;;;;;;9.15;4.10;;;;;;;;;;4467207;32;20637;-90
2022/10/30 13:04:59;;;;;;;5.90;3.50;;;;;;;;;;4467940;32;20279;-90
2022/10/30 13:07:36;;;;;;;16.17;6.07;;;;;;;;;;4468328;32;20267;-89
2022/10/30 13:10:22;;;;;;;7.53;2.70;;;;;;;;;;4469586;32;20650;-88
2022/10/30 13:12:55;;;;;;;19.45;12.05;;;;;;;;;;4468771;32;20224;-88
2022/10/30 13:15:25;;;;;;;12.35;6.93;;;;;;;;;;4468910;32;20258;-89
2022/10/30 13:17:55;;;;;;;7.82;2.85;;;;;;;;;;4471796;32;20305;-89
2022/10/30 13:20:23;;;;;;;13.70;3.78;;;;;;;;;;4471843;32;20267;-88
2022/10/30 13:22:57;;;;;;;9.35;3.75;;;;;;;;;;4471283;32;20280;-89
2022/10/30 13:25:31;;;;;;;8.07;2.35;;;;;;;;;;4471890;32;20692;-90
2022/10/30 13:28:06;;;;;;;5.50;2.42;;;;;;;;;;4470805;32;20739;-89
2022/10/30 13:30:37;;;;;;;3.20;1.80;;;;;;;;;;4471110;32;20315;-90
2022/10/30 13:33:14;;;;;;;6.62;2.15;;;;;;;;;;4471471;32;20212;-89
2022/10/30 13:35:49;;;;;;;5.20;1.87;;;;;;;;;;4471965;32;20673;-90
2022/10/30 13:38:34;;;;;;;4.32;2.08;;;;;;;;;;4471230;32;20291;-91
2022/10/30 13:41:12;;;;;;;7.22;3.45;;;;;;;;;;4470746;32;20270;-89
2022/10/30 13:43:49;;;;;;;13.40;3.35;;;;;;;;;;4472029;32;20220;-88
2022/10/30 13:46:30;;;;;;;9.85;3.10;;;;;;;;;;4471579;32;20224;-88
2022/10/30 13:49:11;;;;;;;7.72;2.42;;;;;;;;;;4471358;32;20200;-88
2022/10/30 13:51:43;;;;;;;4.35;2.10;;;;;;;;;;4471229;32;20225;-89
2022/10/30 13:54:18;;;;;;;13.98;2.37;;;;;;;;;;4471426;32;20218;-88
2022/10/30 13:56:49;;;;;;;4.82;2.12;;;;;;;;;;4471121;32;20215;-90
2022/10/30 13:59:40;;;;;;;8.38;3.37;;;;;;;;;;4472603;32;20199;-88
2022/10/30 14:02:19;;;;;;;12.27;4.55;;;;;;;;;;4484718;32;20181;-87
2022/10/30 14:04:54;;;;;;;8.35;2.62;;;;;;;;;;4486181;32;20231;-88
2022/10/30 14:07:30;;;;;;;11.15;3.62;;;;;;;;;;4476326;32;20280;-88
2022/10/30 14:10:02;;;;;;;14.93;4.25;;;;;;;;;;4474401;32;20199;-88
2022/10/30 14:12:51;;;;;;;8.93;3.22;;;;;;;;;;4471771;32;20216;-89
2022/10/30 14:15:27;;;;;;;5.10;2.75;;;;;;;;;;4473331;32;20578;-88
2022/10/30 14:18:24;;;;;;;11.00;4.55;;;;;;;;;;4474793;32;20267;-87
2022/10/30 14:20:52;;;;;;;12.48;4.70;;;;;;;;;;4470940;32;20288;-88
2022/10/30 14:23:22;;;;;;;19.15;4.95;;;;;;;;;;4470343;32;20234;-88
2022/10/30 14:26:15;;;;;;;22.17;7.57;;;;;;;;;;4470747;32;20245;-88
2022/10/30 14:28:44;;;;;;;17.75;6.93;;;;;;;;;;4463301;32;20235;-88
2022/10/30 14:31:13;;;;;;;22.40;7.72;;;;;;;;;;4470569;32;20665;-88
2022/10/30 14:33:48;;;;;;;24.05;7.40;;;;;;;;;;4471004;32;20223;-88
2022/10/30 14:36:18;;;;;;;15.48;6.68;;;;;;;;;;4471833;32;20716;-88
2022/10/30 14:38:54;;;;;;;22.73;9.65;;;;;;;;;;4470646;32;20238;-87
2022/10/30 14:41:47;;;;;;;27.35;9.90;;;;;;;;;;4470248;32;20211;-89
2022/10/30 14:44:30;;;;;;;30.17;10.35;;;;;;;;;;4469455;32;20346;-87
2022/10/30 14:47:06;;;;;;;22.83;11.77;;;;;;;;;;4469845;32;20228;-88
2022/10/30 14:49:43;;;;;;;30.92;13.25;;;;;;;;;;4470194;32;20686;-87